sensor_id;sensor_type;location;lat;lon;timestamp;temperature;humidity
36586;DHT22;22591;48.314;11.562;2022-11-23T00:02:10;5.10;99.90
36586;DHT22;22591;48.314;11.562;2022-11-23T00:04:36;5.10;99.90
36586;DHT22;22591;48.314;11.562;2022-11-23T00:07:01;5.20;99.90
36586;DHT22;22591;48.314;11.562;2022-11-23T00:09:27;5.20;99.90
36586;DHT22;22591;48.314;11.562;2022-11-23T00:11:52;5.20;99.90
36586;DHT22;22591;48.314;11.562;2022-11-23T00:14:18;5.20;99.90
36586;DHT22;22591;48.314;11.562;2022-11-23T00:16:43;5.20;99.90
36586;DHT22;22591;48.314;11.562;2022-11-23T00:19:09;5.20;99.90
36586;DHT22;22591;48.314;11.562;2022-11-23T00:21:34;5.30;99.90
36586;DHT22;22591;48.314;11.562;2022-11-23T00:24:00;5.30;99.90
36586;DHT22;22591;48.314;11.562;2022-11-23T00:26:26;5.30;99.90
36586;DHT22;22591;48.314;11.562;2022-11-23T00:28:51;5.40;99.90
36586;DHT22;22591;48.314;11.562;2022-11-23T00:31:19;5.40;99.90
36586;DHT22;22591;48.314;11.562;2022-11-23T00:33:52;5.50;99.90
36586;DHT22;22591;48.314;11.562;2022-11-23T00:36:19;5.40;99.90
36586;DHT22;22591;48.314;11.562;2022-11-23T00:38:46;5.50;99.90
36586;DHT22;22591;48.314;11.562;2022-11-23T00:41:14;5.70;99.90
36586;DHT22;22591;48.314;11.562;2022-11-23T00:43:40;5.40;99.90
36586;DHT22;22591;48.314;11.562;2022-11-23T00:48:37;5.40;99.90
36586;DHT22;22591;48.314;11.562;2022-11-23T00:51:05;5.40;99.90
36586;DHT22;22591;48.314;11.562;2022-11-23T00:53:31;5.30;99.90
36586;DHT22;22591;48.314;11.562;2022-11-23T00:55:56;5.30;99.90
36586;DHT22;22591;48.314;11.562;2022-11-23T00:58:23;5.30;99.90
36586;DHT22;22591;48.314;11.562;2022-11-23T01:00:49;5.20;99.90
36586;DHT22;22591;48.314;11.562;2022-11-23T01:03:15;5.20;99.90
36586;DHT22;22591;48.314;11.562;2022-11-23T01:05:41;5.10;99.90
36586;DHT22;22591;48.314;11.562;2022-11-23T01:08:07;5.10;99.90
36586;DHT22;22591;48.314;11.562;2022-11-23T01:10:32;5.10;99.90
36586;DHT22;22591;48.314;11.562;2022-11-23T01:12:59;5.00;99.90
36586;DHT22;22591;48.314;11.562;2022-11-23T01:15:25;5.00;99.90
36586;DHT22;22591;48.314;11.562;2022-11-23T01:17:50;4.90;99.90
36586;DHT22;22591;48.314;11.562;2022-11-23T01:20:16;4.90;99.90
36586;DHT22;22591;48.314;11.562;2022-11-23T01:22:42;4.80;99.90
36586;DHT22;22591;48.314;11.562;2022-11-23T01:25:08;4.80;99.90
36586;DHT22;22591;48.314;11.562;2022-11-23T01:27:34;4.80;99.90
36586;DHT22;22591;48.314;11.562;2022-11-23T01:29:59;4.90;99.90
36586;DHT22;22591;48.314;11.562;2022-11-23T01:32:25;4.80;99.90
36586;DHT22;22591;48.314;11.562;2022-11-23T01:34:50;4.90;99.90
36586;DHT22;22591;48.314;11.562;2022-11-23T01:37:16;4.90;99.90
36586;DHT22;22591;48.314;11.562;2022-11-23T01:39:42;4.90;99.90
36586;DHT22;22591;48.314;11.562;2022-11-23T01:42:07;4.90;99.90
36586;DHT22;22591;48.314;11.562;2022-11-23T01:44:35;4.90;99.90
36586;DHT22;22591;48.314;11.562;2022-11-23T01:47:08;4.90;99.90
36586;DHT22;22591;48.314;11.562;2022-11-23T01:49:53;4.90;99.90
36586;DHT22;22591;48.314;11.562;2022-11-23T01:52:23;4.90;99.90
36586;DHT22;22591;48.314;11.562;2022-11-23T01:54:53;4.80;99.90
36586;DHT22;22591;48.314;11.562;2022-11-23T01:57:25;4.80;99.90
36586;DHT22;22591;48.314;11.562;2022-11-23T01:59:52;4.80;99.90
36586;DHT22;22591;48.314;11.562;2022-11-23T02:02:18;4.80;99.90
36586;DHT22;22591;48.314;11.562;2022-11-23T02:04:46;4.80;99.90
36586;DHT22;22591;48.314;11.562;2022-11-23T02:07:15;4.70;99.90
36586;DHT22;22591;48.314;11.562;2022-11-23T02:09:41;4.70;99.90
36586;DHT22;22591;48.314;11.562;2022-11-23T02:12:12;4.70;99.90
36586;DHT22;22591;48.314;11.562;2022-11-23T02:14:39;4.70;99.90
36586;DHT22;22591;48.314;11.562;2022-11-23T02:17:05;4.70;99.90
36586;DHT22;22591;48.314;11.562;2022-11-23T02:20:04;4.60;99.90
36586;DHT22;22591;48.314;11.562;2022-11-23T02:25:10;4.50;99.90
36586;DHT22;22591;48.314;11.562;2022-11-23T02:27:39;4.40;99.90
36586;DHT22;22591;48.314;11.562;2022-11-23T02:30:06;4.30;99.90
36586;DHT22;22591;48.314;11.562;2022-11-23T02:32:32;4.20;99.90
36586;DHT22;22591;48.314;11.562;2022-11-23T02:34:58;4.10;99.90
36586;DHT22;22591;48.314;11.562;2022-11-23T02:37:24;4.00;99.90
36586;DHT22;22591;48.314;11.562;2022-11-23T02:39:51;3.90;99.90
36586;DHT22;22591;48.314;11.562;2022-11-23T02:42:18;3.80;99.90
36586;DHT22;22591;48.314;11.562;2022-11-23T02:45:06;3.80;99.90
36586;DHT22;22591;48.314;11.562;2022-11-23T02:47:32;3.70;99.90
36586;DHT22;22591;48.314;11.562;2022-11-23T02:49:58;3.70;99.90
36586;DHT22;22591;48.314;11.562;2022-11-23T02:52:24;3.60;99.90
36586;DHT22;22591;48.314;11.562;2022-11-23T02:54:49;3.60;99.90
36586;DHT22;22591;48.314;11.562;2022-11-23T02:57:15;3.50;99.90
36586;DHT22;22591;48.314;11.562;2022-11-23T02:59:41;3.40;99.90
36586;DHT22;22591;48.314;11.562;2022-11-23T03:02:06;3.40;99.90
36586;DHT22;22591;48.314;11.562;2022-11-23T03:04:32;3.40;99.90
36586;DHT22;22591;48.314;11.562;2022-11-23T03:06:58;3.50;99.90
36586;DHT22;22591;48.314;11.562;2022-11-23T03:09:24;3.50;99.90
36586;DHT22;22591;48.314;11.562;2022-11-23T03:11:51;3.40;99.90
36586;DHT22;22591;48.314;11.562;2022-11-23T03:14:17;3.40;99.90
36586;DHT22;22591;48.314;11.562;2022-11-23T03:16:42;3.30;99.90
36586;DHT22;22591;48.314;11.562;2022-11-23T03:19:08;3.20;99.90
36586;DHT22;22591;48.314;11.562;2022-11-23T03:21:34;3.20;99.90
36586;DHT22;22591;48.314;11.562;2022-11-23T03:23:59;3.10;99.90
36586;DHT22;22591;48.314;11.562;2022-11-23T03:26:25;3.00;99.90
36586;DHT22;22591;48.314;11.562;2022-11-23T03:28:50;3.00;99.90
36586;DHT22;22591;48.314;11.562;2022-11-23T03:31:16;3.00;99.90
36586;DHT22;22591;48.314;11.562;2022-11-23T03:33:41;3.00;99.90
36586;DHT22;22591;48.314;11.562;2022-11-23T03:36:07;3.10;99.90
36586;DHT22;22591;48.314;11.562;2022-11-23T03:38:33;3.00;99.90
36586;DHT22;22591;48.314;11.562;2022-11-23T03:40:58;3.00;99.90
36586;DHT22;22591;48.314;11.562;2022-11-23T03:43:24;3.00;99.90
36586;DHT22;22591;48.314;11.562;2022-11-23T03:45:50;3.00;99.90
36586;DHT22;22591;48.314;11.562;2022-11-23T03:48:16;3.00;99.90
36586;DHT22;22591;48.314;11.562;2022-11-23T03:50:43;2.90;99.90
36586;DHT22;22591;48.314;11.562;2022-11-23T03:53:09;2.90;99.90
36586;DHT22;22591;48.314;11.562;2022-11-23T03:55:34;2.90;99.90
36586;DHT22;22591;48.314;11.562;2022-11-23T03:58:00;2.80;99.90
36586;DHT22;22591;48.314;11.562;2022-11-23T04:00:26;2.90;99.90
36586;DHT22;22591;48.314;11.562;2022-11-23T04:02:52;2.80;99.90
36586;DHT22;22591;48.314;11.562;2022-11-23T04:05:18;2.80;99.90
36586;DHT22;22591;48.314;11.562;2022-11-23T04:07:45;2.80;99.90
36586;DHT22;22591;48.314;11.562;2022-11-23T04:10:15;2.80;99.90
36586;DHT22;22591;48.314;11.562;2022-11-23T04:12:41;2.70;99.90
36586;DHT22;22591;48.314;11.562;2022-11-23T04:15:07;2.70;99.90
36586;DHT22;22591;48.314;11.562;2022-11-23T04:17:32;2.70;99.90
36586;DHT22;22591;48.314;11.562;2022-11-23T04:19:58;2.70;99.90
36586;DHT22;22591;48.314;11.562;2022-11-23T04:22:23;2.80;99.90
36586;DHT22;22591;48.314;11.562;2022-11-23T04:24:49;2.80;99.90
36586;DHT22;22591;48.314;11.562;2022-11-23T04:27:14;2.80;99.90
36586;DHT22;22591;48.314;11.562;2022-11-23T04:29:40;2.80;99.90
36586;DHT22;22591;48.314;11.562;2022-11-23T04:32:05;2.90;99.90
36586;DHT22;22591;48.314;11.562;2022-11-23T04:34:31;2.90;99.90
36586;DHT22;22591;48.314;11.562;2022-11-23T04:36:56;3.00;99.90
36586;DHT22;22591;48.314;11.562;2022-11-23T04:39:22;3.00;99.90
36586;DHT22;22591;48.314;11.562;2022-11-23T04:41:47;3.10;99.90
36586;DHT22;22591;48.314;11.562;2022-11-23T04:44:13;3.10;99.90
36586;DHT22;22591;48.314;11.562;2022-11-23T04:46:38;3.10;99.90
36586;DHT22;22591;48.314;11.562;2022-11-23T04:49:04;3.20;99.90
36586;DHT22;22591;48.314;11.562;2022-11-23T04:51:30;3.30;99.90
36586;DHT22;22591;48.314;11.562;2022-11-23T04:53:55;3.30;99.90
36586;DHT22;22591;48.314;11.562;2022-11-23T04:56:21;3.40;99.90
36586;DHT22;22591;48.314;11.562;2022-11-23T04:58:46;3.40;99.90
36586;DHT22;22591;48.314;11.562;2022-11-23T05:01:12;3.50;99.90
36586;DHT22;22591;48.314;11.562;2022-11-23T05:03:37;3.60;99.90
36586;DHT22;22591;48.314;11.562;2022-11-23T05:06:03;3.60;99.90
36586;DHT22;22591;48.314;11.562;2022-11-23T05:08:29;3.60;99.90
36586;DHT22;22591;48.314;11.562;2022-11-23T05:10:56;3.70;99.90
36586;DHT22;22591;48.314;11.562;2022-11-23T05:13:22;3.70;99.90
36586;DHT22;22591;48.314;11.562;2022-11-23T05:15:48;3.70;99.90
36586;DHT22;22591;48.314;11.562;2022-11-23T05:18:13;3.70;99.90
36586;DHT22;22591;48.314;11.562;2022-11-23T05:20:39;3.80;99.90
36586;DHT22;22591;48.314;11.562;2022-11-23T05:23:05;4.00;99.90
36586;DHT22;22591;48.314;11.562;2022-11-23T05:25:30;3.80;99.90
36586;DHT22;22591;48.314;11.562;2022-11-23T05:27:56;3.80;99.90
36586;DHT22;22591;48.314;11.562;2022-11-23T05:30:22;3.80;99.90
36586;DHT22;22591;48.314;11.562;2022-11-23T05:32:47;3.70;99.90
36586;DHT22;22591;48.314;11.562;2022-11-23T05:35:13;3.70;99.90
36586;DHT22;22591;48.314;11.562;2022-11-23T05:37:39;3.70;99.90
36586;DHT22;22591;48.314;11.562;2022-11-23T05:40:05;3.70;99.90
36586;DHT22;22591;48.314;11.562;2022-11-23T05:42:31;3.70;99.90
36586;DHT22;22591;48.314;11.562;2022-11-23T05:44:57;3.70;99.90
36586;DHT22;22591;48.314;11.562;2022-11-23T05:47:23;3.70;99.90
36586;DHT22;22591;48.314;11.562;2022-11-23T05:49:48;3.80;99.90
36586;DHT22;22591;48.314;11.562;2022-11-23T05:52:15;3.80;99.90
36586;DHT22;22591;48.314;11.562;2022-11-23T05:54:40;3.80;99.90
36586;DHT22;22591;48.314;11.562;2022-11-23T05:57:06;3.80;99.90
36586;DHT22;22591;48.314;11.562;2022-11-23T05:59:32;3.80;99.90
36586;DHT22;22591;48.314;11.562;2022-11-23T06:01:57;3.80;99.90
36586;DHT22;22591;48.314;11.562;2022-11-23T06:04:23;3.80;99.90
36586;DHT22;22591;48.314;11.562;2022-11-23T06:06:48;3.80;99.90
36586;DHT22;22591;48.314;11.562;2022-11-23T06:09:14;3.90;99.90
36586;DHT22;22591;48.314;11.562;2022-11-23T06:11:39;3.90;99.90
36586;DHT22;22591;48.314;11.562;2022-11-23T06:14:05;4.00;99.90
36586;DHT22;22591;48.314;11.562;2022-11-23T06:16:31;4.00;99.90
36586;DHT22;22591;48.314;11.562;2022-11-23T06:18:56;4.00;99.90
36586;DHT22;22591;48.314;11.562;2022-11-23T06:21:22;3.90;99.90
36586;DHT22;22591;48.314;11.562;2022-11-23T06:23:47;3.80;99.90
36586;DHT22;22591;48.314;11.562;2022-11-23T06:26:13;3.80;99.90
36586;DHT22;22591;48.314;11.562;2022-11-23T06:28:39;3.90;99.90
36586;DHT22;22591;48.314;11.562;2022-11-23T06:31:05;3.90;99.90
36586;DHT22;22591;48.314;11.562;2022-11-23T06:33:32;3.90;99.90
36586;DHT22;22591;48.314;11.562;2022-11-23T06:35:59;4.00;99.90
36586;DHT22;22591;48.314;11.562;2022-11-23T06:38:26;3.90;99.90
36586;DHT22;22591;48.314;11.562;2022-11-23T06:40:52;3.90;99.90
36586;DHT22;22591;48.314;11.562;2022-11-23T06:43:21;3.90;99.90
36586;DHT22;22591;48.314;11.562;2022-11-23T06:45:46;3.90;99.90
36586;DHT22;22591;48.314;11.562;2022-11-23T06:48:12;3.90;99.90
36586;DHT22;22591;48.314;11.562;2022-11-23T06:50:38;4.00;99.90
36586;DHT22;22591;48.314;11.562;2022-11-23T06:53:03;4.10;99.90
36586;DHT22;22591;48.314;11.562;2022-11-23T06:55:29;4.20;99.90
36586;DHT22;22591;48.314;11.562;2022-11-23T06:57:56;4.20;99.90
36586;DHT22;22591;48.314;11.562;2022-11-23T07:00:23;4.30;99.90
36586;DHT22;22591;48.314;11.562;2022-11-23T07:02:53;4.30;99.90
36586;DHT22;22591;48.314;11.562;2022-11-23T07:05:19;4.20;99.90
36586;DHT22;22591;48.314;11.562;2022-11-23T07:07:44;4.20;99.90
36586;DHT22;22591;48.314;11.562;2022-11-23T07:10:10;4.20;99.90
36586;DHT22;22591;48.314;11.562;2022-11-23T07:12:36;4.30;99.90
36586;DHT22;22591;48.314;11.562;2022-11-23T07:15:01;4.40;99.90
36586;DHT22;22591;48.314;11.562;2022-11-23T07:17:27;4.40;99.90
36586;DHT22;22591;48.314;11.562;2022-11-23T07:19:53;4.40;99.90
36586;DHT22;22591;48.314;11.562;2022-11-23T07:22:18;4.30;99.90
36586;DHT22;22591;48.314;11.562;2022-11-23T07:24:44;4.30;99.90
36586;DHT22;22591;48.314;11.562;2022-11-23T07:27:09;4.20;99.90
36586;DHT22;22591;48.314;11.562;2022-11-23T07:29:35;4.20;99.90
36586;DHT22;22591;48.314;11.562;2022-11-23T07:32:00;4.30;99.90
36586;DHT22;22591;48.314;11.562;2022-11-23T07:34:27;4.40;99.90
36586;DHT22;22591;48.314;11.562;2022-11-23T07:36:53;4.60;99.90
36586;DHT22;22591;48.314;11.562;2022-11-23T07:39:19;4.60;99.90
36586;DHT22;22591;48.314;11.562;2022-11-23T07:41:48;4.60;99.90
36586;DHT22;22591;48.314;11.562;2022-11-23T07:44:13;4.60;99.90
36586;DHT22;22591;48.314;11.562;2022-11-23T07:46:39;4.70;99.90
36586;DHT22;22591;48.314;11.562;2022-11-23T07:49:05;4.70;99.90
36586;DHT22;22591;48.314;11.562;2022-11-23T07:51:30;4.90;99.90
36586;DHT22;22591;48.314;11.562;2022-11-23T07:53:56;4.90;99.90
36586;DHT22;22591;48.314;11.562;2022-11-23T07:56:22;5.00;99.90
36586;DHT22;22591;48.314;11.562;2022-11-23T07:58:47;5.00;99.90
36586;DHT22;22591;48.314;11.562;2022-11-23T08:01:14;5.10;99.90
36586;DHT22;22591;48.314;11.562;2022-11-23T08:03:45;5.20;99.90
36586;DHT22;22591;48.314;11.562;2022-11-23T08:06:12;5.30;99.90
36586;DHT22;22591;48.314;11.562;2022-11-23T08:08:38;5.40;99.90
36586;DHT22;22591;48.314;11.562;2022-11-23T08:11:08;5.40;99.90
36586;DHT22;22591;48.314;11.562;2022-11-23T08:13:34;5.40;99.90
36586;DHT22;22591;48.314;11.562;2022-11-23T08:16:01;5.40;99.90
36586;DHT22;22591;48.314;11.562;2022-11-23T08:18:27;5.50;99.90
36586;DHT22;22591;48.314;11.562;2022-11-23T08:20:53;5.60;99.90
36586;DHT22;22591;48.314;11.562;2022-11-23T08:23:19;5.70;99.90
36586;DHT22;22591;48.314;11.562;2022-11-23T08:25:45;5.70;99.90
36586;DHT22;22591;48.314;11.562;2022-11-23T08:28:11;5.70;99.90
36586;DHT22;22591;48.314;11.562;2022-11-23T08:30:36;5.70;99.90
36586;DHT22;22591;48.314;11.562;2022-11-23T08:33:04;5.70;99.90
36586;DHT22;22591;48.314;11.562;2022-11-23T08:35:32;5.70;99.90
36586;DHT22;22591;48.314;11.562;2022-11-23T08:37:58;5.70;99.90
36586;DHT22;22591;48.314;11.562;2022-11-23T08:40:23;5.90;99.90
36586;DHT22;22591;48.314;11.562;2022-11-23T08:42:49;5.90;99.90
36586;DHT22;22591;48.314;11.562;2022-11-23T08:45:14;6.10;99.90
36586;DHT22;22591;48.314;11.562;2022-11-23T08:47:40;6.30;99.90
36586;DHT22;22591;48.314;11.562;2022-11-23T08:50:06;6.50;99.90
36586;DHT22;22591;48.314;11.562;2022-11-23T08:52:31;6.60;99.90
36586;DHT22;22591;48.314;11.562;2022-11-23T08:54:57;6.70;99.90
36586;DHT22;22591;48.314;11.562;2022-11-23T08:57:22;6.80;99.90
36586;DHT22;22591;48.314;11.562;2022-11-23T08:59:48;6.90;99.90
36586;DHT22;22591;48.314;11.562;2022-11-23T09:02:14;7.00;99.90
36586;DHT22;22591;48.314;11.562;2022-11-23T09:04:40;7.10;99.90
36586;DHT22;22591;48.314;11.562;2022-11-23T09:07:06;7.10;99.90
36586;DHT22;22591;48.314;11.562;2022-11-23T09:09:31;7.10;99.90
36586;DHT22;22591;48.314;11.562;2022-11-23T09:11:57;7.10;99.90
36586;DHT22;22591;48.314;11.562;2022-11-23T09:14:23;7.10;99.90
36586;DHT22;22591;48.314;11.562;2022-11-23T09:16:49;7.10;99.90
36586;DHT22;22591;48.314;11.562;2022-11-23T09:19:15;7.10;99.90
36586;DHT22;22591;48.314;11.562;2022-11-23T09:21:40;7.20;99.90
36586;DHT22;22591;48.314;11.562;2022-11-23T09:24:12;7.30;99.90
36586;DHT22;22591;48.314;11.562;2022-11-23T09:26:38;7.40;99.90
36586;DHT22;22591;48.314;11.562;2022-11-23T09:29:04;7.50;99.90
36586;DHT22;22591;48.314;11.562;2022-11-23T09:31:30;7.50;99.90
36586;DHT22;22591;48.314;11.562;2022-11-23T09:33:56;7.60;99.90
36586;DHT22;22591;48.314;11.562;2022-11-23T09:36:21;7.60;99.90
36586;DHT22;22591;48.314;11.562;2022-11-23T09:38:48;7.70;99.90
36586;DHT22;22591;48.314;11.562;2022-11-23T09:44:14;7.90;99.90
36586;DHT22;22591;48.314;11.562;2022-11-23T09:49:21;7.90;99.90
36586;DHT22;22591;48.314;11.562;2022-11-23T09:51:49;8.00;99.90
36586;DHT22;22591;48.314;11.562;2022-11-23T09:54:28;7.90;99.90
36586;DHT22;22591;48.314;11.562;2022-11-23T09:56:56;8.00;99.90
36586;DHT22;22591;48.314;11.562;2022-11-23T09:59:38;7.90;99.90
36586;DHT22;22591;48.314;11.562;2022-11-23T10:02:05;8.00;99.90
36586;DHT22;22591;48.314;11.562;2022-11-23T10:04:33;8.00;99.90
36586;DHT22;22591;48.314;11.562;2022-11-23T10:15:44;7.80;99.90
36586;DHT22;22591;48.314;11.562;2022-11-23T10:26:17;7.90;99.90
36586;DHT22;22591;48.314;11.562;2022-11-23T10:28:44;7.80;99.90
36586;DHT22;22591;48.314;11.562;2022-11-23T10:31:19;7.90;99.90
36586;DHT22;22591;48.314;11.562;2022-11-23T10:34:23;7.90;99.90
36586;DHT22;22591;48.314;11.562;2022-11-23T10:36:50;7.90;99.90
36586;DHT22;22591;48.314;11.562;2022-11-23T10:39:21;8.00;99.90
36586;DHT22;22591;48.314;11.562;2022-11-23T10:41:48;8.00;99.90
36586;DHT22;22591;48.314;11.562;2022-11-23T10:44:30;8.10;99.90
36586;DHT22;22591;48.314;11.562;2022-11-23T10:46:57;8.20;99.90
36586;DHT22;22591;48.314;11.562;2022-11-23T10:49:28;8.30;99.90
36586;DHT22;22591;48.314;11.562;2022-11-23T10:51:58;8.30;99.90
36586;DHT22;22591;48.314;11.562;2022-11-23T10:57:01;8.20;99.90
36586;DHT22;22591;48.314;11.562;2022-11-23T10:59:37;8.20;99.90
36586;DHT22;22591;48.314;11.562;2022-11-23T11:02:21;8.30;99.90
36586;DHT22;22591;48.314;11.562;2022-11-23T11:04:48;8.30;99.90
36586;DHT22;22591;48.314;11.562;2022-11-23T11:07:36;8.40;99.90
36586;DHT22;22591;48.314;11.562;2022-11-23T11:10:03;8.20;99.90
36586;DHT22;22591;48.314;11.562;2022-11-23T11:12:32;8.20;99.90
36586;DHT22;22591;48.314;11.562;2022-11-23T11:17:33;8.30;99.90
36586;DHT22;22591;48.314;11.562;2022-11-23T11:20:31;8.10;99.90
36586;DHT22;22591;48.314;11.562;2022-11-23T11:22:59;8.10;99.90
36586;DHT22;22591;48.314;11.562;2022-11-23T11:25:37;8.00;99.90
36586;DHT22;22591;48.314;11.562;2022-11-23T11:28:16;7.90;99.90
36586;DHT22;22591;48.314;11.562;2022-11-23T11:33:44;7.80;99.90
36586;DHT22;22591;48.314;11.562;2022-11-23T11:36:13;7.80;99.90
36586;DHT22;22591;48.314;11.562;2022-11-23T11:38:45;7.70;99.90
36586;DHT22;22591;48.314;11.562;2022-11-23T11:41:13;7.70;99.90
36586;DHT22;22591;48.314;11.562;2022-11-23T11:43:48;7.70;99.90
36586;DHT22;22591;48.314;11.562;2022-11-23T11:46:22;7.70;99.90
36586;DHT22;22591;48.314;11.562;2022-11-23T11:51:21;7.60;99.90
36586;DHT22;22591;48.314;11.562;2022-11-23T11:56:54;8.20;99.90
36586;DHT22;22591;48.314;11.562;2022-11-23T11:59:42;8.40;99.90
36586;DHT22;22591;48.314;11.562;2022-11-23T12:02:21;8.30;99.90
36586;DHT22;22591;48.314;11.562;2022-11-23T12:07:36;8.00;99.90
36586;DHT22;22591;48.314;11.562;2022-11-23T12:10:13;8.00;99.90
36586;DHT22;22591;48.314;11.562;2022-11-23T12:12:40;8.10;99.90
36586;DHT22;22591;48.314;11.562;2022-11-23T12:15:19;8.20;99.90
36586;DHT22;22591;48.314;11.562;2022-11-23T12:20:36;8.40;99.90
36586;DHT22;22591;48.314;11.562;2022-11-23T12:23:07;8.50;99.90
36586;DHT22;22591;48.314;11.562;2022-11-23T12:26:12;8.60;99.90
36586;DHT22;22591;48.314;11.562;2022-11-23T12:28:42;8.60;99.90
36586;DHT22;22591;48.314;11.562;2022-11-23T12:34:30;8.60;99.90
36586;DHT22;22591;48.314;11.562;2022-11-23T12:37:14;8.60;99.90
36586;DHT22;22591;48.314;11.562;2022-11-23T12:40:06;8.50;99.90
36586;DHT22;22591;48.314;11.562;2022-11-23T12:42:43;8.60;99.90
36586;DHT22;22591;48.314;11.562;2022-11-23T12:45:35;8.60;99.90
36586;DHT22;22591;48.314;11.562;2022-11-23T12:48:24;8.70;99.90
36586;DHT22;22591;48.314;11.562;2022-11-23T12:56:24;9.30;99.90
36586;DHT22;22591;48.314;11.562;2022-11-23T12:58:55;9.10;99.90
36586;DHT22;22591;48.314;11.562;2022-11-23T13:01:35;9.10;99.90
36586;DHT22;22591;48.314;11.562;2022-11-23T13:04:43;9.10;99.90
36586;DHT22;22591;48.314;11.562;2022-11-23T13:16:20;9.50;99.90
36586;DHT22;22591;48.314;11.562;2022-11-23T13:19:06;9.60;99.90
36586;DHT22;22591;48.314;11.562;2022-11-23T13:21:36;9.50;99.90
36586;DHT22;22591;48.314;11.562;2022-11-23T13:24:03;9.50;99.90
36586;DHT22;22591;48.314;11.562;2022-11-23T13:26:29;9.40;99.90
36586;DHT22;22591;48.314;11.562;2022-11-23T13:28:58;9.30;99.90
36586;DHT22;22591;48.314;11.562;2022-11-23T13:31:29;9.20;99.90
36586;DHT22;22591;48.314;11.562;2022-11-23T13:34:06;9.10;99.90
36586;DHT22;22591;48.314;11.562;2022-11-23T13:36:58;8.80;99.90
36586;DHT22;22591;48.314;11.562;2022-11-23T13:42:10;8.30;99.90
36586;DHT22;22591;48.314;11.562;2022-11-23T13:44:36;8.10;99.90
36586;DHT22;22591;48.314;11.562;2022-11-23T13:49:51;8.00;99.90
36586;DHT22;22591;48.314;11.562;2022-11-23T13:54:54;8.10;99.90
36586;DHT22;22591;48.314;11.562;2022-11-23T13:57:21;8.10;99.90
36586;DHT22;22591;48.314;11.562;2022-11-23T13:59:47;8.10;99.90
36586;DHT22;22591;48.314;11.562;2022-11-23T14:04:42;8.00;99.90
36586;DHT22;22591;48.314;11.562;2022-11-23T14:10:00;8.00;99.90
36586;DHT22;22591;48.314;11.562;2022-11-23T14:12:47;8.00;99.90
36586;DHT22;22591;48.314;11.562;2022-11-23T14:15:21;7.90;99.90
36586;DHT22;22591;48.314;11.562;2022-11-23T14:42:30;7.00;99.90
36586;DHT22;22591;48.314;11.562;2022-11-23T14:45:01;6.90;99.90
36586;DHT22;22591;48.314;11.562;2022-11-23T14:47:29;6.80;99.90
36586;DHT22;22591;48.314;11.562;2022-11-23T14:49:55;6.80;99.90
36586;DHT22;22591;48.314;11.562;2022-11-23T14:52:26;6.70;99.90
36586;DHT22;22591;48.314;11.562;2022-11-23T14:54:54;6.60;99.90
36586;DHT22;22591;48.314;11.562;2022-11-23T14:57:22;6.50;99.90
36586;DHT22;22591;48.314;11.562;2022-11-23T14:59:55;6.50;99.90
36586;DHT22;22591;48.314;11.562;2022-11-23T15:02:38;6.40;99.90
36586;DHT22;22591;48.314;11.562;2022-11-23T15:13:01;6.00;99.90
36586;DHT22;22591;48.314;11.562;2022-11-23T15:15:28;5.90;99.90
36586;DHT22;22591;48.314;11.562;2022-11-23T15:17:59;5.70;99.90
36586;DHT22;22591;48.314;11.562;2022-11-23T15:20:39;5.60;99.90
36586;DHT22;22591;48.314;11.562;2022-11-23T15:23:05;5.50;99.90
36586;DHT22;22591;48.314;11.562;2022-11-23T15:25:31;5.30;99.90
36586;DHT22;22591;48.314;11.562;2022-11-23T15:27:57;5.30;99.90
36586;DHT22;22591;48.314;11.562;2022-11-23T15:30:27;5.10;99.90
36586;DHT22;22591;48.314;11.562;2022-11-23T15:32:58;5.00;99.90
36586;DHT22;22591;48.314;11.562;2022-11-23T15:35:29;4.90;99.90
36586;DHT22;22591;48.314;11.562;2022-11-23T15:37:56;4.90;99.90
36586;DHT22;22591;48.314;11.562;2022-11-23T15:40:23;4.80;99.90
36586;DHT22;22591;48.314;11.562;2022-11-23T15:42:51;4.80;99.90
36586;DHT22;22591;48.314;11.562;2022-11-23T15:45:33;4.70;99.90
36586;DHT22;22591;48.314;11.562;2022-11-23T15:47:59;4.60;99.90
36586;DHT22;22591;48.314;11.562;2022-11-23T15:50:25;4.60;99.90
36586;DHT22;22591;48.314;11.562;2022-11-23T15:52:51;4.60;99.90
36586;DHT22;22591;48.314;11.562;2022-11-23T15:55:16;4.50;99.90
36586;DHT22;22591;48.314;11.562;2022-11-23T15:57:43;4.40;99.90
36586;DHT22;22591;48.314;11.562;2022-11-23T16:00:21;4.30;99.90
36586;DHT22;22591;48.314;11.562;2022-11-23T16:02:48;4.30;99.90
36586;DHT22;22591;48.314;11.562;2022-11-23T16:05:20;4.30;99.90
36586;DHT22;22591;48.314;11.562;2022-11-23T16:10:32;4.20;99.90
36586;DHT22;22591;48.314;11.562;2022-11-23T16:13:00;4.20;99.90
36586;DHT22;22591;48.314;11.562;2022-11-23T16:18:02;4.10;99.90
36586;DHT22;22591;48.314;11.562;2022-11-23T16:20:29;4.00;99.90
36586;DHT22;22591;48.314;11.562;2022-11-23T16:22:55;4.00;99.90
36586;DHT22;22591;48.314;11.562;2022-11-23T16:25:32;4.00;99.90
36586;DHT22;22591;48.314;11.562;2022-11-23T16:28:02;3.90;99.90
36586;DHT22;22591;48.314;11.562;2022-11-23T16:30:40;3.90;99.90
36586;DHT22;22591;48.314;11.562;2022-11-23T16:33:13;3.90;99.90
36586;DHT22;22591;48.314;11.562;2022-11-23T16:35:39;3.90;99.90
36586;DHT22;22591;48.314;11.562;2022-11-23T16:38:05;4.10;99.90
36586;DHT22;22591;48.314;11.562;2022-11-23T16:40:31;4.10;99.90
36586;DHT22;22591;48.314;11.562;2022-11-23T16:42:57;4.10;99.90
36586;DHT22;22591;48.314;11.562;2022-11-23T16:45:24;4.00;99.90
36586;DHT22;22591;48.314;11.562;2022-11-23T16:47:53;3.90;99.90
36586;DHT22;22591;48.314;11.562;2022-11-23T16:50:20;3.80;99.90
36586;DHT22;22591;48.314;11.562;2022-11-23T16:52:46;3.90;99.90
36586;DHT22;22591;48.314;11.562;2022-11-23T16:55:12;4.00;99.90
36586;DHT22;22591;48.314;11.562;2022-11-23T16:57:38;4.10;99.90
36586;DHT22;22591;48.314;11.562;2022-11-23T17:00:13;4.10;99.90
36586;DHT22;22591;48.314;11.562;2022-11-23T17:02:38;4.10;99.90
36586;DHT22;22591;48.314;11.562;2022-11-23T17:05:13;4.10;99.90
36586;DHT22;22591;48.314;11.562;2022-11-23T17:07:38;4.10;99.90
36586;DHT22;22591;48.314;11.562;2022-11-23T17:10:04;4.10;99.90
36586;DHT22;22591;48.314;11.562;2022-11-23T17:12:30;4.10;99.90
36586;DHT22;22591;48.314;11.562;2022-11-23T17:14:55;4.10;99.90
36586;DHT22;22591;48.314;11.562;2022-11-23T17:17:22;4.10;99.90
36586;DHT22;22591;48.314;11.562;2022-11-23T17:19:49;4.10;99.90
36586;DHT22;22591;48.314;11.562;2022-11-23T17:22:16;4.10;99.90
36586;DHT22;22591;48.314;11.562;2022-11-23T17:24:43;4.10;99.90
36586;DHT22;22591;48.314;11.562;2022-11-23T17:27:12;4.00;99.90
36586;DHT22;22591;48.314;11.562;2022-11-23T17:29:39;4.00;99.90
36586;DHT22;22591;48.314;11.562;2022-11-23T17:32:09;3.80;99.90
36586;DHT22;22591;48.314;11.562;2022-11-23T17:34:35;3.70;99.90